Time;durP1;ratioP1;P1;durP2;ratioP2;P2;SDS_P1;SDS_P2;PMS_P1;PMS_P2;Temp;Humidity;BMP_temperature;BMP_pressure;BME280_temperature;BME280_humidity;BME280_pressure;Samples;Min_cycle;Max_cycle;Signal;HPM_P1;HPM_P2
2023/01/26 00:02:10;;;;;;;35.07;10.03;;;;;;;-2.42;100.00;101925.59;6147406;28;20036;-69
2023/01/26 00:05:06;;;;;;;33.93;9.93;;;;;;;-2.37;100.00;101925.53;6148551;28;20031;-70
2023/01/26 00:08:01;;;;;;;26.95;9.13;;;;;;;-2.36;100.00;101928.97;6147264;28;20471;-70
2023/01/26 00:10:57;;;;;;;37.05;10.43;;;;;;;-2.34;100.00;101927.19;6147479;28;20028;-70
2023/01/26 00:13:52;;;;;;;30.80;9.70;;;;;;;-2.37;100.00;101919.47;6148622;28;20039;-70
2023/01/26 00:16:48;;;;;;;32.80;9.02;;;;;;;-2.53;100.00;101908.56;6148767;28;20093;-69
2023/01/26 00:19:43;;;;;;;33.23;10.50;;;;;;;-2.43;100.00;101905.75;6148993;28;20479;-70
2023/01/26 00:22:38;;;;;;;36.20;10.63;;;;;;;-2.42;100.00;101912.63;6148209;28;20039;-69
2023/01/26 00:25:36;;;;;;;35.50;10.43;;;;;;;-2.56;100.00;101883.53;6148089;28;20032;-70
2023/01/26 00:28:32;;;;;;;37.78;10.40;;;;;;;-2.38;100.00;101904.75;6149275;28;20051;-69
2023/01/26 00:31:27;;;;;;;37.20;9.52;;;;;;;-2.56;100.00;101886.13;6148537;28;20036;-70
2023/01/26 00:34:23;;;;;;;31.37;9.60;;;;;;;-2.52;100.00;101892.94;6147515;28;20036;-69
2023/01/26 00:37:18;;;;;;;37.03;11.00;;;;;;;-2.52;100.00;101895.56;6148819;28;20289;-70
2023/01/26 00:40:13;;;;;;;43.17;12.75;;;;;;;-2.62;100.00;101888.88;6148583;28;20398;-70
2023/01/26 00:43:09;;;;;;;31.98;10.27;;;;;;;-2.60;100.00;101901.78;6146961;28;20039;-69
2023/01/26 00:46:04;;;;;;;46.00;12.27;;;;;;;-2.73;100.00;101890.84;6148552;28;20518;-70
2023/01/26 00:48:59;;;;;;;42.97;12.83;;;;;;;-2.61;100.00;101900.94;6130048;28;20040;-70
2023/01/26 00:51:55;;;;;;;45.90;12.33;;;;;;;-2.61;100.00;101889.72;6147714;28;20035;-70
2023/01/26 00:54:50;;;;;;;43.97;9.93;;;;;;;-2.61;100.00;101889.72;6146609;28;20281;-70
2023/01/26 00:57:45;;;;;;;53.20;13.03;;;;;;;-2.66;100.00;101892.41;6148255;28;20044;-71
2023/01/26 01:00:40;;;;;;;43.53;11.25;;;;;;;-2.76;100.00;101883.13;6148146;28;20079;-71
2023/01/26 01:03:36;;;;;;;46.03;12.37;;;;;;;-2.71;100.00;101886.47;6146101;28;20070;-71
2023/01/26 01:06:31;;;;;;;43.50;11.83;;;;;;;-2.89;100.00;101875.63;6148245;28;20032;-70
2023/01/26 01:09:26;;;;;;;41.53;12.07;;;;;;;-2.83;100.00;101883.28;6147248;28;20122;-71
2023/01/26 01:12:22;;;;;;;38.60;10.77;;;;;;;-2.86;100.00;101878.16;6146716;28;20043;-70
2023/01/26 01:15:17;;;;;;;40.47;11.57;;;;;;;-2.97;100.00;101870.59;6148001;28;20028;-69
2023/01/26 01:18:12;;;;;;;41.60;11.57;;;;;;;-2.82;100.00;101872.84;6147457;28;20032;-71
2023/01/26 01:21:10;;;;;;;39.83;10.50;;;;;;;-2.76;100.00;101875.34;6129588;28;20040;-71
2023/01/26 01:24:06;;;;;;;54.15;13.88;;;;;;;-2.73;100.00;101884.78;6146178;28;20039;-71
2023/01/26 01:27:01;;;;;;;47.80;12.38;;;;;;;-2.88;100.00;101874.75;6147854;28;20039;-70
2023/01/26 01:29:56;;;;;;;41.90;11.33;;;;;;;-3.07;100.00;101843.13;6147585;28;20468;-70
2023/01/26 01:32:52;;;;;;;44.03;12.40;;;;;;;-2.88;100.00;101861.78;6146465;28;20111;-69
2023/01/26 01:35:57;;;;;;;49.30;11.23;;;;;;;-2.87;100.00;101855.69;6147138;28;20032;-71
2023/01/26 01:38:53;;;;;;;47.28;11.35;;;;;;;-2.78;100.00;101864.13;6140221;28;20042;-69
2023/01/26 01:41:48;;;;;;;50.80;12.43;;;;;;;-2.85;100.00;101853.94;6146902;28;20419;-69
2023/01/26 01:45:05;;;;;;;33.50;9.47;;;;;;;-2.73;100.00;101864.03;6146817;28;20081;-71
2023/01/26 01:48:02;;;;;;;47.63;11.77;;;;;;;-2.91;100.00;101864.44;6146779;28;20478;-69
2023/01/26 01:51:03;;;;;;;41.78;12.43;;;;;;;-2.95;100.00;101850.66;6146688;28;20032;-69
2023/01/26 01:54:03;;;;;;;50.78;12.10;;;;;;;-2.84;100.00;101853.03;6128082;28;20055;-70
2023/01/26 01:57:04;;;;;;;37.17;11.30;;;;;;;-2.88;100.00;101839.25;6129189;28;20028;-69
2023/01/26 02:00:05;;;;;;;42.60;11.23;;;;;;;-2.77;100.00;101852.84;6146354;28;20054;-70
2023/01/26 02:03:13;;;;;;;45.75;12.38;;;;;;;-2.83;100.00;101840.03;6127514;28;20036;-70
2023/01/26 02:06:21;;;;;;;44.03;12.00;;;;;;;-2.90;100.00;101830.66;6128653;28;20039;-70
2023/01/26 02:12:35;;;;;;;47.47;12.32;;;;;;;-2.77;100.00;101834.69;6129641;28;20036;-69
2023/01/26 02:15:31;;;;;;;47.75;11.07;;;;;;;-2.72;100.00;101832.88;6128889;28;20043;-71
2023/01/26 02:18:26;;;;;;;46.65;10.98;;;;;;;-2.76;100.00;101823.44;6127971;28;20032;-70
2023/01/26 02:21:22;;;;;;;43.25;11.75;;;;;;;-2.70;100.00;101814.66;6128127;28;20578;-69
2023/01/26 02:24:21;;;;;;;50.85;12.10;;;;;;;-2.41;100.00;101813.06;6127216;28;20024;-69
2023/01/26 02:27:17;;;;;;;40.90;12.05;;;;;;;-2.52;100.00;101806.41;6128025;28;20082;-71
2023/01/26 02:30:12;;;;;;;45.00;10.87;;;;;;;-2.25;100.00;101800.56;6128445;28;20032;-71
2023/01/26 02:33:14;;;;;;;36.22;10.27;;;;;;;-2.20;100.00;101800.47;6144728;28;20024;-71
2023/01/26 02:36:16;;;;;;;38.83;10.13;;;;;;;-2.41;100.00;101794.03;6146164;28;20038;-71
2023/01/26 02:39:23;;;;;;;40.25;9.52;;;;;;;-2.27;100.00;101804.09;6145743;28;20043;-71
2023/01/26 02:45:33;;;;;;;43.83;11.73;;;;;;;-2.54;100.00;101790.91;6126518;28;20115;-70
2023/01/26 02:51:42;;;;;;;46.42;10.85;;;;;;;-2.35;100.00;101801.69;6145979;28;20486;-71
2023/01/26 02:57:54;;;;;;;34.33;10.80;;;;;;;-2.38;100.00;101793.09;6148883;28;20036;-70
2023/01/26 03:00:49;;;;;;;42.03;13.07;;;;;;;-2.53;100.00;101794.34;6148035;28;20077;-71
2023/01/26 03:03:44;;;;;;;47.63;13.23;;;;;;;-2.62;100.00;101785.03;6145139;28;20028;-70
2023/01/26 03:06:40;;;;;;;41.53;11.00;;;;;;;-2.69;100.00;101783.47;6145775;28;20016;-69
2023/01/26 03:09:35;;;;;;;40.27;9.67;;;;;;;-2.42;100.00;101782.78;6145293;28;20086;-71
2023/01/26 03:12:31;;;;;;;44.90;11.73;;;;;;;-2.47;100.00;101774.25;6144333;28;20028;-71
2023/01/26 03:15:41;;;;;;;38.78;11.35;;;;;;;-2.65;100.00;101769.53;6145664;28;20028;-69
2023/01/26 03:28:21;;;;;;;38.58;11.63;;;;;;;-2.53;100.00;101795.19;6150311;28;20039;-69
2023/01/26 03:31:17;;;;;;;33.10;10.27;;;;;;;-2.54;100.00;101785.69;6150079;28;20043;-71
2023/01/26 03:34:12;;;;;;;35.93;9.70;;;;;;;-2.52;100.00;101791.69;6155542;28;20028;-70
2023/01/26 03:37:07;;;;;;;36.50;8.60;;;;;;;-2.65;100.00;101777.31;6149955;28;20134;-71
2023/01/26 03:56:31;;;;;;;38.30;9.32;;;;;;;-2.60;100.00;101791.03;6149625;28;20048;-71
2023/01/26 03:59:38;;;;;;;40.67;11.20;;;;;;;-2.71;100.00;101774.00;6149690;28;20093;-70
2023/01/26 04:09:01;;;;;;;39.90;10.57;;;;;;;-2.51;100.00;101780.44;6149170;28;20032;-70
2023/01/26 04:11:56;;;;;;;37.23;8.87;;;;;;;-2.41;100.00;101778.47;6148043;28;20035;-69
2023/01/26 04:21:27;;;;;;;42.50;10.13;;;;;;;-2.43;100.00;101769.84;6148304;28;20047;-71
2023/01/26 04:24:23;;;;;;;45.08;10.70;;;;;;;-2.51;100.00;101762.28;6148084;28;20394;-71
2023/01/26 04:27:18;;;;;;;43.25;12.00;;;;;;;-2.60;100.00;101751.25;6148860;28;20036;-71
2023/01/26 04:30:15;;;;;;;49.10;11.47;;;;;;;-2.62;100.00;101761.69;6148253;28;20035;-71
2023/01/26 04:33:10;;;;;;;49.53;12.50;;;;;;;-2.53;100.00;101761.44;6147790;28;20020;-70
2023/01/26 04:36:07;;;;;;;37.97;10.03;;;;;;;-2.56;100.00;101755.47;6148242;28;20438;-71
2023/01/26 04:39:03;;;;;;;44.00;10.40;;;;;;;-2.54;100.00;101757.16;6148452;28;20386;-71
2023/01/26 04:41:58;;;;;;;50.28;13.15;;;;;;;-2.57;100.00;101746.84;6147640;28;20051;-69
2023/01/26 04:44:53;;;;;;;49.17;11.93;;;;;;;-2.61;100.00;101745.19;6147595;28;20035;-71
2023/01/26 04:47:49;;;;;;;47.30;10.70;;;;;;;-2.59;100.00;101743.44;6148521;28;20024;-71
2023/01/26 04:50:52;;;;;;;44.05;10.20;;;;;;;-2.48;100.00;101746.63;6146935;28;20028;-69
2023/01/26 04:53:48;;;;;;;50.35;11.93;;;;;;;-2.47;100.00;101753.50;6147125;28;20082;-71
2023/01/26 04:56:43;;;;;;;51.47;12.50;;;;;;;-2.40;100.00;101746.41;6147886;28;20035;-70
2023/01/26 04:59:38;;;;;;;60.10;12.47;;;;;;;-2.43;100.00;101744.75;6148369;28;20054;-70
2023/01/26 05:02:34;;;;;;;50.27;11.07;;;;;;;-2.49;100.00;101724.13;6147390;28;20028;-70
2023/01/26 05:05:29;;;;;;;48.33;12.40;;;;;;;-2.49;100.00;101726.72;6147817;28;20391;-70
2023/01/26 05:08:24;;;;;;;49.30;12.07;;;;;;;-2.39;100.00;101740.31;6148305;28;20486;-69
2023/01/26 05:11:20;;;;;;;54.07;12.00;;;;;;;-2.43;100.00;101742.16;6147709;28;20078;-71
2023/01/26 05:14:15;;;;;;;45.17;10.25;;;;;;;-2.39;100.00;101734.28;6147225;28;20102;-70
2023/01/26 05:17:11;;;;;;;44.37;10.63;;;;;;;-2.39;100.00;101723.91;6148019;28;20036;-71
2023/01/26 05:20:06;;;;;;;54.90;12.50;;;;;;;-2.35;100.00;101726.38;6147446;28;20281;-70
2023/01/26 05:23:02;;;;;;;57.05;13.43;;;;;;;-2.39;100.00;101729.94;6146735;28;20055;-71
2023/01/26 05:25:57;;;;;;;54.97;10.77;;;;;;;-2.42;100.00;101730.03;6147112;28;20039;-70
2023/01/26 05:28:52;;;;;;;48.33;12.00;;;;;;;-2.39;100.00;101734.28;6147470;28;20044;-69
2023/01/26 05:31:48;;;;;;;49.37;12.73;;;;;;;-2.44;100.00;101742.19;6147073;28;20039;-71
2023/01/26 05:34:43;;;;;;;53.93;11.40;;;;;;;-2.45;100.00;101740.50;6146527;28;20032;-69
2023/01/26 05:37:41;;;;;;;55.03;12.05;;;;;;;-2.44;100.00;101735.25;6147568;28;20110;-69
2023/01/26 05:40:36;;;;;;;57.85;13.63;;;;;;;-2.56;100.00;101712.22;6146595;28;20039;-71
2023/01/26 05:43:31;;;;;;;59.23;12.37;;;;;;;-2.41;100.00;101734.31;6146299;28;20040;-70
2023/01/26 05:46:26;;;;;;;57.57;13.03;;;;;;;-2.46;100.00;101721.47;6135746;28;20499;-69
2023/01/26 05:49:22;;;;;;;52.30;13.30;;;;;;;-2.41;100.00;101747.28;6129180;28;20032;-69
2023/01/26 05:52:19;;;;;;;60.83;13.03;;;;;;;-2.48;100.00;101738.81;6146176;28;20073;-71
2023/01/26 05:55:14;;;;;;;54.50;12.48;;;;;;;-2.41;100.00;101744.69;6146583;28;20124;-70
2023/01/26 05:58:10;;;;;;;59.83;11.65;;;;;;;-2.30;100.00;101752.22;6146719;28;20487;-70
2023/01/26 06:01:05;;;;;;;60.23;12.60;;;;;;;-2.31;100.00;101755.72;6146989;28;20036;-69
2023/01/26 06:04:01;;;;;;;57.17;13.93;;;;;;;-2.39;100.00;101742.91;6144992;28;20020;-70
2023/01/26 06:06:58;;;;;;;54.42;13.38;;;;;;;-2.43;100.00;101744.75;6146114;28;20039;-71
2023/01/26 06:09:53;;;;;;;46.55;11.73;;;;;;;-2.29;100.00;101756.53;6145657;28;20020;-71
2023/01/26 06:12:48;;;;;;;52.17;12.50;;;;;;;-2.36;100.00;101755.81;6144037;28;20055;-71
2023/01/26 06:15:44;;;;;;;61.50;11.60;;;;;;;-2.23;100.00;101761.56;6147775;28;20479;-71
2023/01/26 06:18:39;;;;;;;59.60;11.82;;;;;;;-2.25;100.00;101756.41;6147373;28;20119;-70
2023/01/26 06:21:35;;;;;;;55.73;10.83;;;;;;;-2.24;100.00;101760.72;6154834;28;20040;-70
2023/01/26 06:24:30;;;;;;;50.88;11.45;;;;;;;-2.23;100.00;101754.63;6144873;28;20098;-71
2023/01/26 06:27:25;;;;;;;52.93;12.80;;;;;;;-2.24;100.00;101741.69;6146518;28;20028;-71
2023/01/26 06:30:21;;;;;;;52.77;13.60;;;;;;;-2.21;100.00;101759.78;6144451;28;20452;-71
2023/01/26 06:33:16;;;;;;;49.90;12.53;;;;;;;-2.14;100.00;101766.50;6145536;28;20028;-71
2023/01/26 06:36:13;;;;;;;41.40;10.23;;;;;;;-2.08;100.00;101772.41;6145920;28;20089;-72
2023/01/26 06:39:10;;;;;;;52.65;12.10;;;;;;;-2.16;100.00;101760.50;6144621;28;20156;-70
2023/01/26 06:42:06;;;;;;;45.60;13.75;;;;;;;-2.10;100.00;101763.81;6145863;28;20872;-71
2023/01/26 06:45:02;;;;;;;53.50;13.18;;;;;;;-2.20;100.00;101761.50;6144274;28;20043;-69
2023/01/26 06:47:57;;;;;;;56.17;12.98;;;;;;;-2.06;100.00;101764.56;6144928;28;20411;-71
2023/01/26 06:50:55;;;;;;;54.87;11.57;;;;;;;-2.16;100.00;101752.72;6145291;28;20115;-72
2023/01/26 06:53:51;;;;;;;49.70;12.13;;;;;;;-2.16;100.00;101763.09;6126344;28;20415;-70
2023/01/26 06:56:47;;;;;;;47.67;12.50;;;;;;;-2.18;100.00;101754.50;6145747;28;20356;-69
2023/01/26 06:59:42;;;;;;;54.57;11.53;;;;;;;-2.12;100.00;101765.56;6144845;28;20040;-69
2023/01/26 07:02:38;;;;;;;49.63;13.13;;;;;;;-2.18;100.00;101755.38;6144914;28;20046;-69
2023/01/26 07:05:33;;;;;;;54.30;12.27;;;;;;;-2.21;100.00;101747.66;6144833;28;20044;-70
2023/01/26 07:08:28;;;;;;;51.10;12.53;;;;;;;-2.20;100.00;101759.72;6143612;28;20043;-71
2023/01/26 07:11:24;;;;;;;47.83;11.53;;;;;;;-2.15;100.00;101755.28;6139941;28;20032;-70
2023/01/26 07:14:19;;;;;;;51.08;12.32;;;;;;;-2.17;100.00;101763.97;6144492;28;20031;-72
2023/01/26 07:17:15;;;;;;;45.37;12.03;;;;;;;-2.15;100.00;101752.69;6145348;28;20052;-70
2023/01/26 07:20:10;;;;;;;46.00;13.40;;;;;;;-2.11;100.00;101751.72;6142997;28;20036;-70
2023/01/26 07:23:05;;;;;;;52.67;13.93;;;;;;;-2.18;100.00;101749.31;6144123;28;20111;-69
2023/01/26 07:26:01;;;;;;;48.80;12.43;;;;;;;-2.13;100.00;101757.84;6145413;28;20297;-70
2023/01/26 07:28:56;;;;;;;100.00;28.40;;;;;;;-2.10;100.00;101770.75;6145235;28;20115;-69
2023/01/26 07:31:51;;;;;;;60.60;13.27;;;;;;;-2.05;100.00;101763.69;6144747;28;20039;-71
2023/01/26 07:34:47;;;;;;;54.17;12.00;;;;;;;-2.06;100.00;101756.75;6144688;28;20043;-70
2023/01/26 07:37:43;;;;;;;56.55;12.95;;;;;;;-2.05;100.00;101766.28;6144372;28;20039;-68
2023/01/26 07:40:38;;;;;;;56.33;14.07;;;;;;;-1.99;100.00;101772.19;6145273;28;20040;-69
2023/01/26 07:43:34;;;;;;;47.83;12.23;;;;;;;-1.97;100.00;101772.13;6146783;28;20133;-70
2023/01/26 07:46:30;;;;;;;61.65;15.75;;;;;;;-1.96;100.00;101755.66;6144700;28;20115;-70
2023/01/26 07:49:25;;;;;;;62.00;16.23;;;;;;;-1.78;100.00;101772.47;6155569;28;20031;-68
2023/01/26 07:52:20;;;;;;;106.23;33.80;;;;;;;-1.91;100.00;101766.78;6149894;28;20039;-72
2023/01/26 07:55:16;;;;;;;60.40;17.53;;;;;;;-1.75;100.00;101777.59;6144720;28;20036;-70
2023/01/26 07:58:11;;;;;;;40.47;11.67;;;;;;;-1.72;100.00;101761.91;6144117;28;20286;-68
2023/01/26 08:01:13;;;;;;;50.92;14.32;;;;;;;-1.84;100.00;101757.91;6145374;28;20028;-70
2023/01/26 08:04:08;;;;;;;;;;;;;;;-1.72;100.00;101772.31;6144538;28;20031;-70
2023/01/26 08:07:04;;;;;;;52.80;12.17;;;;;;;-1.74;100.00;101771.50;6149948;28;19919;-70
2023/01/26 08:09:59;;;;;;;25.87;8.90;;;;;;;-1.77;100.00;101758.59;6148520;28;20036;-71
2023/01/26 08:12:54;;;;;;;109.23;47.40;;;;;;;-1.69;100.00;101762.69;6147419;28;20274;-69
2023/01/26 08:15:49;;;;;;;77.43;23.57;;;;;;;-1.61;100.00;101781.53;6148659;28;20131;-70
2023/01/26 08:18:45;;;;;;;126.67;42.73;;;;;;;-1.53;100.00;101779.56;6149154;28;20028;-69
2023/01/26 08:21:41;;;;;;;59.95;20.20;;;;;;;-1.50;100.00;101771.69;6149190;28;20482;-71
2023/01/26 08:24:36;;;;;;;57.60;14.83;;;;;;;-1.48;100.00;101777.69;6148256;28;20036;-70
2023/01/26 08:27:31;;;;;;;45.97;14.83;;;;;;;-1.51;100.00;101767.34;6148990;28;20387;-71
2023/01/26 08:30:27;;;;;;;85.63;28.67;;;;;;;-1.46;100.00;101767.22;6148841;28;20262;-69
2023/01/26 08:33:23;;;;;;;38.80;9.93;;;;;;;-1.47;100.00;101787.16;6147175;28;20121;-70
2023/01/26 08:36:18;;;;;;;42.95;10.52;;;;;;;-1.54;100.00;101770.03;6148031;28;20032;-71
2023/01/26 08:39:13;;;;;;;47.45;11.45;;;;;;;-1.54;100.00;101775.25;6148338;28;20048;-70
2023/01/26 08:42:09;;;;;;;43.87;12.10;;;;;;;-1.47;100.00;101789.75;6148056;28;20115;-70
2023/01/26 08:45:04;;;;;;;48.53;13.47;;;;;;;-1.52;100.00;101768.25;6147826;28;20034;-70
2023/01/26 08:48:00;;;;;;;48.97;13.95;;;;;;;-1.36;100.00;101773.88;6147797;28;20479;-69
2023/01/26 08:50:56;;;;;;;44.37;11.33;;;;;;;-1.36;100.00;101769.50;6148348;28;20032;-69
2023/01/26 08:53:53;;;;;;;57.70;14.40;;;;;;;-1.36;100.00;101774.72;6147325;28;20035;-70
2023/01/26 08:56:48;;;;;;;40.22;10.82;;;;;;;-1.42;100.00;101779.25;6148241;28;20102;-70
2023/01/26 08:59:43;;;;;;;48.15;11.60;;;;;;;-1.31;100.00;101791.06;6147877;28;20475;-70
2023/01/26 09:02:39;;;;;;;43.90;12.77;;;;;;;-1.36;100.00;101773.88;6147460;28;20050;-70
2023/01/26 09:05:36;;;;;;;55.97;13.47;;;;;;;-1.27;100.00;101794.41;6146527;28;20032;-71
2023/01/26 09:08:32;;;;;;;42.20;14.00;;;;;;;-1.36;100.00;101782.50;6147081;28;20028;-69
2023/01/26 09:11:27;;;;;;;48.00;11.02;;;;;;;-1.15;100.00;101790.59;6148115;28;20028;-69
2023/01/26 09:14:22;;;;;;;42.37;11.33;;;;;;;-1.34;100.00;101770.34;6147023;28;20479;-70
2023/01/26 09:17:18;;;;;;;51.63;13.77;;;;;;;-1.23;100.00;101791.69;6146619;28;20031;-70
2023/01/26 09:20:13;;;;;;;49.07;13.80;;;;;;;-1.32;100.00;101765.06;6147997;28;20036;-70
2023/01/26 09:23:09;;;;;;;55.80;14.63;;;;;;;-1.28;100.00;101762.31;6153759;28;20032;-70
2023/01/26 09:26:04;;;;;;;59.95;13.05;;;;;;;-1.13;100.00;101780.97;6147923;28;20348;-70
2023/01/26 09:28:59;;;;;;;56.90;13.43;;;;;;;-1.20;100.00;101775.97;6147046;28;20024;-70
2023/01/26 09:31:55;;;;;;;50.53;12.97;;;;;;;-1.15;100.00;101769.78;6146939;28;20390;-71
2023/01/26 09:34:50;;;;;;;55.27;14.60;;;;;;;-1.14;100.00;101772.31;6129343;28;20391;-71
2023/01/26 09:37:45;;;;;;;52.80;13.17;;;;;;;-1.07;100.00;101780.81;6147020;28;20032;-70
2023/01/26 09:40:55;;;;;;;58.07;13.57;;;;;;;-1.21;100.00;101758.66;6147611;28;20471;-71
2023/01/26 09:44:00;;;;;;;57.00;14.02;;;;;;;-1.08;100.00;101758.28;6127677;28;20070;-71
2023/01/26 09:46:58;;;;;;;52.92;12.43;;;;;;;-0.98;100.00;101770.13;6129180;28;20031;-71
2023/01/26 09:50:01;;;;;;;56.50;14.18;;;;;;;-0.97;100.00;101769.22;6147195;28;20489;-70
2023/01/26 09:53:03;;;;;;;55.08;14.25;;;;;;;-0.83;100.00;101780.06;6127270;28;20043;-70
2023/01/26 09:55:58;;;;;;;48.60;13.48;;;;;;;-0.93;100.00;101770.84;6117142;28;20032;-71
2023/01/26 09:58:59;;;;;;;55.50;13.15;;;;;;;-0.95;100.00;101754.44;6154283;28;20053;-71
2023/01/26 10:02:00;;;;;;;53.58;12.27;;;;;;;-0.75;100.00;101775.47;6145118;28;20030;-71
2023/01/26 10:04:59;;;;;;;43.85;12.02;;;;;;;-0.77;100.00;101753.84;6135119;28;20055;-70
2023/01/26 10:07:54;;;;;;;50.42;13.45;;;;;;;-0.73;100.00;101763.22;6112217;28;20028;-70
2023/01/26 10:10:54;;;;;;;45.63;11.57;;;;;;;-0.75;100.00;101767.66;6146103;28;20058;-71
2023/01/26 10:13:55;;;;;;;48.85;11.82;;;;;;;-0.73;100.00;101758.03;6127602;28;20020;-71
2023/01/26 10:16:51;;;;;;;52.15;14.02;;;;;;;-0.87;100.00;101752.44;6128303;28;20028;-72
2023/01/26 10:19:54;;;;;;;50.38;12.38;;;;;;;-0.91;100.00;101753.41;6146553;28;20467;-69
2023/01/26 10:22:52;;;;;;;45.45;11.30;;;;;;;-0.93;100.00;101744.81;6127388;28;20039;-69
2023/01/26 10:25:49;;;;;;;48.38;12.50;;;;;;;-0.82;100.00;101747.94;6137112;28;20082;-71
2023/01/26 10:28:47;;;;;;;39.42;11.43;;;;;;;-0.84;100.00;101755.78;6144511;28;20028;-70
2023/01/26 10:31:43;;;;;;;54.00;12.77;;;;;;;-0.88;100.00;101761.13;6110680;28;20482;-71
2023/01/26 10:34:39;;;;;;;53.78;12.88;;;;;;;-0.84;100.00;101754.91;6126675;28;20047;-72
2023/01/26 10:37:35;;;;;;;42.35;12.38;;;;;;;-0.79;100.00;101740.03;6146031;28;20123;-71
2023/01/26 10:40:42;;;;;;;44.53;12.77;;;;;;;-0.68;100.00;101750.94;6145122;28;20038;-72
2023/01/26 10:43:40;;;;;;;42.75;11.63;;;;;;;-0.74;100.00;101753.75;6136876;28;20274;-69
2023/01/26 10:46:40;;;;;;;40.53;13.40;;;;;;;-0.76;100.00;101730.34;6144454;28;20368;-71
2023/01/26 10:49:37;;;;;;;51.88;14.73;;;;;;;-0.60;100.00;101725.50;6145268;28;20050;-71
2023/01/26 10:52:32;;;;;;;47.10;11.90;;;;;;;-0.49;100.00;101733.78;6144605;28;20032;-70
2023/01/26 10:55:29;;;;;;;47.73;13.33;;;;;;;-0.52;100.00;101727.84;6144429;28;20270;-72
2023/01/26 10:58:41;;;;;;;47.90;13.77;;;;;;;-0.51;100.00;101729.53;6144234;28;20541;-72
2023/01/26 11:01:51;;;;;;;47.15;13.20;;;;;;;-0.49;100.00;101733.78;6126820;28;20039;-70
2023/01/26 11:05:05;;;;;;;42.75;12.50;;;;;;;-0.52;100.00;101731.31;6126985;28;20040;-69
2023/01/26 11:08:02;;;;;;;44.92;12.27;;;;;;;-0.67;100.00;101716.19;6145301;28;20032;-71
2023/01/26 11:10:57;;;;;;;50.08;15.30;;;;;;;-0.54;100.00;101727.06;6145393;28;20486;-70
2023/01/26 11:14:14;;;;;;;53.73;14.73;;;;;;;-0.53;100.00;101724.38;6143843;28;20035;-72
2023/01/26 11:17:35;;;;;;;53.60;13.57;;;;;;;-0.59;100.00;101695.94;6115720;28;20156;-72
2023/01/26 11:20:50;;;;;;;34.85;11.93;;;;;;;-0.41;100.00;101715.31;6139801;28;20071;-70
2023/01/26 11:24:03;;;;;;;;;;;;;;;-0.51;100.00;101716.50;6143721;28;20043;-70
2023/01/26 11:27:05;;;;;;;38.22;10.60;;;;;;;-0.52;100.00;101707.88;6140421;28;19916;-71
2023/01/26 11:30:27;;;;;;;45.70;11.93;;;;;;;-0.50;100.00;101711.28;6144977;28;20036;-71
2023/01/26 11:33:27;;;;;;;34.33;10.10;;;;;;;-0.60;100.00;101694.25;6131434;28;20043;-72
2023/01/26 11:36:36;;;;;;;44.17;12.20;;;;;;;-0.45;100.00;101708.50;6153944;28;20024;-70
2023/01/26 11:40:03;;;;;;;35.63;11.82;;;;;;;-0.37;100.00;101712.56;6129412;28;20036;-71
2023/01/26 11:43:22;;;;;;;42.05;12.35;;;;;;;-0.61;100.00;101650.88;6116399;28;20036;-71
2023/01/26 11:46:43;;;;;;;39.65;11.95;;;;;;;-0.39;100.00;101677.88;6138584;28;20028;-72
2023/01/26 11:50:20;;;;;;;44.35;14.23;;;;;;;-0.33;100.00;101682.91;6149374;28;20386;-74
2023/01/26 11:53:28;;;;;;;42.35;13.50;;;;;;;-0.20;100.00;101688.53;6091287;28;20439;-72
2023/01/26 11:56:47;;;;;;;45.13;12.18;;;;;;;-0.23;100.00;101692.09;6146887;28;20521;-71
2023/01/26 11:59:47;;;;;;;35.90;12.05;;;;;;;-0.24;100.00;101663.47;6148676;28;20886;-75
2023/01/26 12:02:46;;;;;;;36.25;11.23;;;;;;;-0.09;100.00;101661.19;6135696;28;20371;-74
2023/01/26 12:05:49;;;;;;;33.88;10.52;;;;;;;-0.02;100.00;101662.66;6148273;28;20036;-74
2023/01/26 12:08:51;;;;;;;29.25;8.52;;;;;;;-0.15;100.00;101656.19;6130366;28;20036;-74
2023/01/26 12:12:06;;;;;;;28.00;8.95;;;;;;;-0.03;100.00;101668.75;6147702;28;20059;-72
2023/01/26 12:15:10;;;;;;;31.77;8.98;;;;;;;0.11;100.00;101657.81;6129325;28;20398;-74
2023/01/26 12:18:08;;;;;;;26.63;8.52;;;;;;;0.04;100.00;101656.34;6130466;28;20060;-72
2023/01/26 12:21:08;;;;;;;30.42;10.13;;;;;;;-0.15;100.00;101640.53;6148168;28;20032;-74
2023/01/26 12:24:04;;;;;;;34.28;10.05;;;;;;;-0.07;100.00;101633.28;6123104;28;20539;-73
2023/01/26 12:27:01;;;;;;;38.42;11.80;;;;;;;0.07;100.00;101648.44;6147563;28;20028;-71
2023/01/26 12:30:24;;;;;;;34.42;11.25;;;;;;;0.01;100.00;101635.63;6150892;28;20027;-73
2023/01/26 12:33:19;;;;;;;36.33;9.77;;;;;;;0.04;100.00;101614.66;6136403;28;20093;-73
2023/01/26 12:36:40;;;;;;;28.77;9.25;;;;;;;0.17;100.00;101625.44;6147995;28;20036;-71
2023/01/26 12:39:44;;;;;;;30.55;9.55;;;;;;;0.22;100.00;101607.91;6147353;28;20032;-72
2023/01/26 12:42:49;;;;;;;32.92;8.73;;;;;;;0.20;100.00;101615.78;6147095;28;20048;-71
2023/01/26 12:45:47;;;;;;;22.13;7.38;;;;;;;0.14;100.00;101607.31;6147137;28;20028;-71
2023/01/26 12:48:49;;;;;;;29.50;9.30;;;;;;;0.11;100.00;101615.28;6128755;28;20031;-72
2023/01/26 12:51:50;;;;;;;23.75;8.75;;;;;;;-0.06;100.00;101624.59;6146072;28;20403;-71
2023/01/26 12:54:51;;;;;;;31.60;8.93;;;;;;;0.02;100.00;101628.66;6146303;28;20042;-71
2023/01/26 12:57:48;;;;;;;;;;;;;;;-0.09;100.00;101624.69;6129401;28;20039;-73
2023/01/26 13:00:59;;;;;;;30.02;8.13;;;;;;;-0.13;100.00;101620.47;6128867;28;19918;-72
2023/01/26 13:04:07;;;;;;;30.27;9.65;;;;;;;-0.22;100.00;101607.78;6146729;28;20090;-72
2023/01/26 13:07:26;;;;;;;30.85;8.48;;;;;;;-0.10;100.00;101615.16;6129445;28;20101;-71
2023/01/26 13:10:25;;;;;;;36.50;10.48;;;;;;;-0.11;100.00;101615.22;6146266;28;20126;-73
2023/01/26 13:13:31;;;;;;;37.85;11.00;;;;;;;-0.19;100.00;101584.22;6146185;28;20081;-72
2023/01/26 13:16:33;;;;;;;29.95;9.23;;;;;;;-0.17;100.00;101599.81;6147292;28;20032;-72
2023/01/26 13:19:41;;;;;;;32.40;10.02;;;;;;;-0.11;100.00;101604.81;6149563;28;20035;-71
2023/01/26 13:22:39;;;;;;;30.23;9.13;;;;;;;-0.11;100.00;101605.63;6143119;28;20028;-72
2023/01/26 13:25:34;;;;;;;28.23;8.68;;;;;;;-0.24;100.00;101587.91;6131749;28;20155;-72
2023/01/26 13:28:29;;;;;;;31.60;9.67;;;;;;;-0.14;100.00;101616.19;6147073;28;20153;-71
2023/01/26 13:31:30;;;;;;;31.73;10.00;;;;;;;-0.22;100.00;101601.75;6144447;28;20670;-70
2023/01/26 13:34:36;;;;;;;31.88;9.45;;;;;;;-0.22;100.00;101607.78;6146505;28;20685;-71
2023/01/26 13:37:48;;;;;;;29.02;8.43;;;;;;;-0.23;100.00;101600.88;6146817;28;20089;-70
2023/01/26 13:40:49;;;;;;;26.05;7.95;;;;;;;-0.29;100.00;101600.25;6129224;28;20518;-71
2023/01/26 13:43:55;;;;;;;32.25;9.18;;;;;;;-0.24;100.00;101620.00;6145660;28;20040;-71
2023/01/26 13:46:57;;;;;;;31.67;9.65;;;;;;;-0.37;100.00;101605.75;6146236;28;20047;-70
2023/01/26 13:49:52;;;;;;;24.27;6.68;;;;;;;-0.39;100.00;101606.69;6128745;28;20035;-71
2023/01/26 13:52:48;;;;;;;31.73;9.33;;;;;;;-0.38;100.00;101614.44;6146352;28;20040;-71
2023/01/26 13:55:55;;;;;;;33.17;9.27;;;;;;;-0.35;100.00;101627.38;6128311;28;20131;-71
2023/01/26 13:58:51;;;;;;;33.60;9.90;;;;;;;-0.48;100.00;101610.47;6128320;28;20285;-70
2023/01/26 14:01:48;;;;;;;34.92;10.85;;;;;;;-0.35;100.00;101624.75;6145503;28;20486;-70
2023/01/26 14:04:50;;;;;;;29.25;7.88;;;;;;;-0.28;100.00;101634.06;6143923;28;20036;-70
2023/01/26 14:07:47;;;;;;;33.88;9.05;;;;;;;-0.42;100.00;101627.66;6144653;28;20498;-71
2023/01/26 14:10:42;;;;;;;32.08;9.75;;;;;;;-0.38;100.00;101637.88;6146626;28;20039;-70
2023/01/26 14:13:37;;;;;;;22.83;7.63;;;;;;;-0.47;100.00;101630.41;6144616;28;20404;-71
2023/01/26 14:16:35;;;;;;;26.17;7.63;;;;;;;-0.42;100.00;101636.31;6144507;28;20024;-71
2023/01/26 14:19:31;;;;;;;31.60;8.23;;;;;;;-0.48;100.00;101630.47;6145691;28;20594;-71